Orient Point, New York
Current Conditions -  °F | °C
As of 1:56 AM on Friday 28 Nov 2014 (Local Time) from KGON Reporting Station
Light Snow Light Snow  
Wind Chill: 24°   Ceiling: 4700
Heat Index: 32°   Visibility: 7mi
Dew Point: 29°   Wind: 9mph
Humidity: 88%   Direction: 330°NNW
Pressure: 30"   Gusts: NA
Location:  41.1442°N, 72.2776°W
Report Text: KGON 280656Z AUTO 33008KT 7SM -SN OVC047 00/M02 A3000 RMK AO2 SLP158 P0000 T00001017 $
Loading
Personal Weather Stations






























Interactive Weather Map New forecast layout! Learn more

10-Day Weather Forecast

Advertisements
Track Severe Weather on mobile